Time;durP1;ratioP1;P1;durP2;ratioP2;P2;SDS_P1;SDS_P2;PMS_P1;PMS_P2;Temp;Humidity;BMP_temperature;BMP_pressure;BME280_temperature;BME280_humidity;BME280_pressure;Samples;Min_cycle;Max_cycle;Signal;HPM_P1;HPM_P2
2021/03/16 00:02:00;;;;;;;18.35;3.00;;;4.30;99.90;;;;;;5007005;28;20033;-61
2021/03/16 00:04:26;;;;;;;31.58;3.75;;;4.20;99.90;;;;;;4994861;28;20034;-60
2021/03/16 00:06:52;;;;;;;16.42;2.72;;;4.20;99.90;;;;;;5010059;28;20052;-62
2021/03/16 00:09:18;;;;;;;27.20;3.25;;;4.30;99.90;;;;;;5014419;28;20107;-61
2021/03/16 00:11:43;;;;;;;23.98;3.83;;;4.30;99.90;;;;;;5018084;28;20034;-61
2021/03/16 00:14:09;;;;;;;23.90;3.67;;;4.30;99.90;;;;;;5004264;28;20037;-61
2021/03/16 00:16:34;;;;;;;24.02;4.35;;;4.30;99.90;;;;;;5019511;28;20041;-61
2021/03/16 00:19:00;;;;;;;23.75;5.35;;;4.30;99.90;;;;;;5005055;28;20030;-61
2021/03/16 00:21:25;;;;;;;23.17;4.65;;;4.30;99.90;;;;;;5004385;28;20058;-62
2021/03/16 00:23:51;;;;;;;24.88;4.97;;;4.20;99.90;;;;;;5014632;28;20029;-62
2021/03/16 00:26:16;;;;;;;19.48;4.85;;;4.20;99.90;;;;;;5010696;28;20034;-61
2021/03/16 00:28:42;;;;;;;27.13;5.53;;;4.20;99.90;;;;;;5007263;28;20030;-60
2021/03/16 00:31:07;;;;;;;20.13;4.72;;;4.30;99.90;;;;;;5013050;28;20022;-61
2021/03/16 00:33:33;;;;;;;27.08;6.03;;;4.20;99.90;;;;;;5010682;28;20065;-62
2021/03/16 00:35:58;;;;;;;19.33;5.40;;;4.20;99.90;;;;;;5013223;28;20026;-62
2021/03/16 00:38:24;;;;;;;19.00;4.93;;;4.20;99.90;;;;;;5014840;28;20046;-61
2021/03/16 00:40:50;;;;;;;16.92;5.20;;;4.20;99.90;;;;;;5022657;28;20052;-60
2021/03/16 00:43:17;;;;;;;23.85;6.80;;;4.20;99.90;;;;;;5014895;28;20030;-60
2021/03/16 00:45:42;;;;;;;20.38;5.70;;;4.20;99.90;;;;;;5014435;28;20082;-61
2021/03/16 00:48:14;;;;;;;23.88;7.13;;;4.30;99.90;;;;;;5010387;28;20029;-61
2021/03/16 00:50:40;;;;;;;23.17;5.93;;;4.20;99.90;;;;;;4992204;28;20512;-62
2021/03/16 00:53:06;;;;;;;34.63;8.07;;;4.30;99.90;;;;;;5014286;28;20061;-62
2021/03/16 00:55:31;;;;;;;34.08;6.43;;;4.30;99.90;;;;;;4997766;28;20057;-63
2021/03/16 00:57:57;;;;;;;32.15;8.57;;;4.30;99.90;;;;;;5007832;28;20034;-62
2021/03/16 01:00:22;;;;;;;32.20;8.43;;;4.30;99.90;;;;;;5016588;28;20034;-62
2021/03/16 01:02:48;;;;;;;32.30;9.15;;;4.30;99.90;;;;;;5014356;28;20037;-61
2021/03/16 01:05:14;;;;;;;26.55;8.60;;;4.30;99.90;;;;;;5022123;28;20053;-62
2021/03/16 01:07:39;;;;;;;30.80;9.13;;;4.30;99.90;;;;;;5011522;28;20545;-61
2021/03/16 01:10:13;;;;;;;38.40;11.70;;;4.30;99.90;;;;;;5020992;28;20022;-61
2021/03/16 01:12:40;;;;;;;;;;;4.30;99.90;;;;;;5012904;28;20035;-62
2021/03/16 01:15:06;;;;;;;26.13;8.40;;;4.30;99.90;;;;;;5013101;28;19916;-61
2021/03/16 01:17:32;;;;;;;30.67;10.32;;;4.40;99.90;;;;;;4996592;28;20570;-60
2021/03/16 01:19:57;;;;;;;30.75;10.23;;;4.40;99.90;;;;;;5002762;28;20030;-61
2021/03/16 01:22:23;;;;;;;38.28;9.50;;;4.40;99.90;;;;;;5005338;28;20049;-62
2021/03/16 01:24:48;;;;;;;26.98;8.52;;;4.40;99.90;;;;;;5004820;28;20037;-61
2021/03/16 01:27:14;;;;;;;39.15;8.48;;;4.50;99.90;;;;;;5019790;28;20037;-61
2021/03/16 01:29:40;;;;;;;26.52;7.03;;;4.50;99.90;;;;;;5010262;28;20068;-61
2021/03/16 01:32:06;;;;;;;33.60;7.63;;;4.50;99.90;;;;;;4991242;28;20508;-60
2021/03/16 01:34:31;;;;;;;35.95;7.05;;;4.50;99.90;;;;;;4978845;28;20109;-62
2021/03/16 01:36:57;;;;;;;28.48;7.53;;;4.50;99.90;;;;;;5006336;28;20106;-58
2021/03/16 01:39:23;;;;;;;35.13;8.75;;;4.50;99.90;;;;;;5018252;28;20025;-62
2021/03/16 01:41:48;;;;;;;28.95;6.82;;;4.60;99.90;;;;;;5006905;28;20456;-62
2021/03/16 01:44:14;;;;;;;36.80;6.20;;;4.60;99.90;;;;;;5008143;28;20044;-60
2021/03/16 01:46:40;;;;;;;32.88;6.85;;;4.60;99.90;;;;;;5015945;28;20075;-62
2021/03/16 01:49:06;;;;;;;34.30;7.85;;;4.60;99.90;;;;;;5006769;28;20026;-60
2021/03/16 01:51:32;;;;;;;35.05;8.43;;;4.60;99.90;;;;;;5013439;28;20113;-62
2021/03/16 01:53:57;;;;;;;31.83;7.65;;;4.70;99.90;;;;;;5003977;28;20456;-61
2021/03/16 01:56:26;;;;;;;27.05;7.43;;;4.70;99.90;;;;;;5017361;28;20443;-61
2021/03/16 01:58:54;;;;;;;27.60;5.80;;;4.70;99.90;;;;;;5005968;28;20030;-60
2021/03/16 02:01:20;;;;;;;24.10;5.07;;;4.70;99.90;;;;;;5007635;28;20062;-61
2021/03/16 02:03:46;;;;;;;28.25;6.50;;;4.70;99.90;;;;;;5020149;28;20480;-60
2021/03/16 02:06:39;;;;;;;32.28;5.43;;;4.70;99.90;;;;;;5010724;28;20133;-63
2021/03/16 02:09:41;;;;;;;32.83;5.00;;;4.60;99.90;;;;;;5002818;28;20527;-60
2021/03/16 02:12:19;;;;;;;39.03;8.40;;;4.60;99.90;;;;;;5003762;28;20031;-60
2021/03/16 02:14:50;;;;;;;24.67;4.25;;;4.60;99.90;;;;;;4999670;28;20092;-61
2021/03/16 02:17:20;;;;;;;18.65;4.03;;;4.60;99.90;;;;;;5010493;28;20038;-61
2021/03/16 02:20:23;;;;;;;23.17;5.47;;;4.60;99.90;;;;;;5005594;28;20022;-61
2021/03/16 02:22:51;;;;;;;30.58;7.00;;;4.60;99.90;;;;;;5006325;28;20025;-62
2021/03/16 02:25:27;;;;;;;26.85;5.30;;;4.70;99.90;;;;;;5004429;28;20034;-61
2021/03/16 02:28:24;;;;;;;20.38;3.65;;;4.70;99.90;;;;;;5000539;28;20037;-61
2021/03/16 02:30:50;;;;;;;28.65;4.38;;;4.70;99.90;;;;;;5013753;28;20117;-61
2021/03/16 02:33:22;;;;;;;28.17;6.55;;;4.70;99.90;;;;;;5008771;28;20399;-62
2021/03/16 02:35:50;;;;;;;21.15;4.30;;;4.70;99.90;;;;;;4990966;28;20044;-61
2021/03/16 02:38:19;;;;;;;23.08;3.53;;;4.60;99.90;;;;;;5006889;28;20030;-61
2021/03/16 02:40:47;;;;;;;25.80;4.13;;;4.60;99.90;;;;;;5014705;28;20068;-59
2021/03/16 02:43:14;;;;;;;34.47;4.03;;;4.60;99.90;;;;;;5011336;28;20037;-62
2021/03/16 02:45:39;;;;;;;35.13;3.97;;;4.60;99.90;;;;;;5022357;28;20030;-61
2021/03/16 02:48:07;;;;;;;27.05;4.38;;;4.60;99.90;;;;;;5011038;28;20026;-61
2021/03/16 02:50:33;;;;;;;33.30;5.15;;;4.60;99.90;;;;;;5006774;28;20385;-62
2021/03/16 02:52:59;;;;;;;30.33;5.47;;;4.60;99.90;;;;;;5011429;28;20152;-61
2021/03/16 02:55:26;;;;;;;21.95;4.00;;;4.60;99.90;;;;;;5019762;28;20084;-61
2021/03/16 02:57:53;;;;;;;20.55;4.18;;;4.60;99.90;;;;;;5007927;28;20048;-61
2021/03/16 03:00:20;;;;;;;32.33;5.10;;;4.60;99.90;;;;;;5018571;28;20029;-60
2021/03/16 03:02:48;;;;;;;26.70;4.25;;;4.60;99.90;;;;;;4977869;28;20054;-59
2021/03/16 03:05:14;;;;;;;30.70;4.30;;;4.60;99.90;;;;;;5018653;28;20427;-61
2021/03/16 03:07:41;;;;;;;18.02;3.45;;;4.50;99.90;;;;;;5026570;28;20033;-60
2021/03/16 03:10:08;;;;;;;24.38;4.80;;;4.50;99.90;;;;;;4997712;28;20758;-61
2021/03/16 03:12:34;;;;;;;24.70;5.25;;;4.40;99.90;;;;;;5003440;28;20052;-58
2021/03/16 03:15:00;;;;;;;29.48;7.00;;;4.40;99.90;;;;;;5018913;28;20050;-62
2021/03/16 03:17:25;;;;;;;27.35;6.30;;;4.40;99.90;;;;;;5002017;28;20044;-59
2021/03/16 03:19:51;;;;;;;24.02;5.72;;;4.40;99.90;;;;;;5010695;28;20065;-61
2021/03/16 03:22:46;;;;;;;19.33;6.05;;;4.40;99.90;;;;;;5016559;28;20491;-61
2021/03/16 03:25:34;;;;;;;28.77;8.23;;;4.40;99.90;;;;;;5006772;28;20046;-60
2021/03/16 03:28:12;;;;;;;21.88;5.85;;;4.40;99.90;;;;;;5002961;28;20030;-58
2021/03/16 03:30:38;;;;;;;24.45;6.45;;;4.40;99.90;;;;;;4998882;28;20688;-60
2021/03/16 03:33:05;;;;;;;27.77;6.47;;;4.40;99.90;;;;;;5011574;28;20141;-61
2021/03/16 03:35:36;;;;;;;26.17;5.35;;;4.40;99.90;;;;;;5000788;28;20030;-61
2021/03/16 03:38:03;;;;;;;24.83;7.13;;;4.40;99.90;;;;;;5014834;28;20585;-61
2021/03/16 03:40:30;;;;;;;19.75;6.00;;;4.50;99.90;;;;;;5008399;28;20034;-60
2021/03/16 03:42:58;;;;;;;28.40;6.35;;;4.50;99.90;;;;;;4997823;28;20458;-61
2021/03/16 03:45:28;;;;;;;24.73;7.57;;;4.50;99.90;;;;;;5014453;28;20164;-60
2021/03/16 03:47:57;;;;;;;26.70;7.35;;;4.50;99.90;;;;;;5005702;28;20037;-60
2021/03/16 03:50:23;;;;;;;23.80;7.57;;;4.30;99.90;;;;;;5016355;28;20120;-60
2021/03/16 03:52:50;;;;;;;27.52;8.07;;;4.20;99.90;;;;;;5017313;28;20017;-58
2021/03/16 03:55:17;;;;;;;22.25;8.68;;;4.20;99.90;;;;;;5002545;28;20379;-59
2021/03/16 03:57:43;;;;;;;32.80;11.50;;;4.20;99.90;;;;;;5008319;28;20310;-60
2021/03/16 04:00:16;;;;;;;34.28;10.20;;;4.10;99.90;;;;;;4996919;28;20623;-58
2021/03/16 04:02:41;;;;;;;25.73;8.63;;;4.10;99.90;;;;;;4997089;28;20045;-59
2021/03/16 04:05:16;;;;;;;36.42;10.15;;;4.10;99.90;;;;;;5015645;28;20017;-59
2021/03/16 04:07:42;;;;;;;31.83;6.80;;;4.10;99.90;;;;;;5019485;28;20034;-61
2021/03/16 04:10:10;;;;;;;17.65;5.85;;;4.10;99.90;;;;;;5010365;28;20031;-60
2021/03/16 04:12:37;;;;;;;23.08;5.38;;;4.10;99.90;;;;;;5008484;28;20240;-58
2021/03/16 04:17:45;;;;;;;26.67;3.80;;;4.20;99.90;;;;;;5062055;27;20373;-60
2021/03/16 04:20:13;;;;;;;24.70;3.72;;;4.20;99.90;;;;;;5054857;28;20039;-61
2021/03/16 04:22:40;;;;;;;18.05;3.70;;;4.20;99.90;;;;;;5121100;27;20043;-60
2021/03/16 04:25:06;;;;;;;22.63;3.00;;;4.20;99.90;;;;;;5131846;27;20118;-59
2021/03/16 04:27:32;;;;;;;22.98;3.35;;;4.20;99.90;;;;;;5139894;27;20306;-60
2021/03/16 04:29:57;;;;;;;22.67;3.00;;;4.20;99.90;;;;;;5138995;27;20043;-61
2021/03/16 04:32:23;;;;;;;21.33;3.45;;;4.20;99.90;;;;;;5141045;27;20027;-59
2021/03/16 04:34:49;;;;;;;25.17;3.67;;;4.30;99.90;;;;;;5144945;27;20510;-59
2021/03/16 04:37:15;;;;;;;30.83;4.28;;;4.30;99.90;;;;;;5144521;27;20491;-59
2021/03/16 04:39:40;;;;;;;25.42;5.72;;;4.20;99.90;;;;;;5136622;27;20486;-59
2021/03/16 04:42:06;;;;;;;20.40;3.15;;;4.30;99.90;;;;;;5131966;27;20110;-58
2021/03/16 04:44:32;;;;;;;24.80;4.00;;;4.30;99.90;;;;;;5140518;27;20031;-60
2021/03/16 04:46:57;;;;;;;22.05;3.63;;;4.30;99.90;;;;;;5127970;27;20058;-59
2021/03/16 04:49:23;;;;;;;24.13;3.22;;;4.30;99.90;;;;;;5141141;27;20065;-60
2021/03/16 04:51:49;;;;;;;19.48;3.10;;;4.30;99.90;;;;;;5145015;27;20031;-60
2021/03/16 04:54:15;;;;;;;26.08;4.57;;;4.30;99.90;;;;;;5143841;27;20023;-60
2021/03/16 04:56:40;;;;;;;22.30;4.20;;;4.30;99.90;;;;;;5127284;27;20125;-61
2021/03/16 04:59:06;;;;;;;21.48;3.40;;;4.40;99.90;;;;;;5146165;27;20444;-61
2021/03/16 05:01:31;;;;;;;24.95;4.30;;;4.40;99.90;;;;;;5100118;27;20035;-61
2021/03/16 05:03:57;;;;;;;21.35;3.72;;;4.40;99.90;;;;;;5145358;27;20525;-58
2021/03/16 05:06:23;;;;;;;21.23;4.50;;;4.40;99.90;;;;;;5143196;27;20404;-60
2021/03/16 05:08:50;;;;;;;21.83;3.45;;;4.40;99.90;;;;;;5134920;27;20027;-60
2021/03/16 05:11:15;;;;;;;23.98;3.70;;;4.40;99.90;;;;;;5142507;27;20488;-59
2021/03/16 05:13:41;;;;;;;14.30;4.00;;;4.40;99.90;;;;;;5128809;27;20037;-60
2021/03/16 05:16:07;;;;;;;21.75;3.95;;;4.40;99.90;;;;;;5138627;27;20026;-58
2021/03/16 05:18:33;;;;;;;28.20;4.05;;;4.40;99.90;;;;;;5131077;27;20496;-58
2021/03/16 05:20:59;;;;;;;22.38;3.30;;;4.40;99.90;;;;;;5135334;27;20563;-60
2021/03/16 05:23:25;;;;;;;23.08;3.22;;;4.40;99.90;;;;;;5140797;27;20099;-61
2021/03/16 05:25:50;;;;;;;16.38;2.85;;;4.40;99.90;;;;;;5130138;27;20488;-60
2021/03/16 05:28:16;;;;;;;27.33;3.45;;;4.40;99.90;;;;;;5130573;27;20124;-62
2021/03/16 05:30:41;;;;;;;26.08;3.20;;;4.40;99.90;;;;;;5125923;27;20414;-61
2021/03/16 05:33:07;;;;;;;20.88;2.78;;;4.40;99.90;;;;;;5126574;27;20031;-61
2021/03/16 05:35:33;;;;;;;19.75;3.03;;;4.40;99.90;;;;;;5127232;27;20035;-60
2021/03/16 05:37:59;;;;;;;21.27;3.53;;;4.40;99.90;;;;;;5131794;27;20072;-62
2021/03/16 05:40:28;;;;;;;20.45;2.90;;;4.40;99.90;;;;;;5117769;27;20110;-62
2021/03/16 05:42:55;;;;;;;19.02;2.83;;;4.40;99.90;;;;;;5118803;27;20023;-61
2021/03/16 05:45:21;;;;;;;19.05;3.15;;;4.40;99.90;;;;;;5131267;27;20015;-62
2021/03/16 05:47:48;;;;;;;16.45;2.92;;;4.40;99.90;;;;;;5112782;27;20019;-62
2021/03/16 05:50:15;;;;;;;13.50;2.92;;;4.40;99.90;;;;;;5121591;27;20103;-63
2021/03/16 05:52:41;;;;;;;19.90;3.08;;;4.40;99.90;;;;;;5116294;27;20050;-61
2021/03/16 05:55:08;;;;;;;19.05;3.20;;;4.40;99.90;;;;;;5123656;27;20034;-61
2021/03/16 05:57:34;;;;;;;24.48;4.75;;;4.40;99.90;;;;;;5097853;27;20054;-61
2021/03/16 06:00:00;;;;;;;26.40;4.18;;;4.40;99.90;;;;;;5111124;27;20020;-63
2021/03/16 06:02:25;;;;;;;30.33;3.88;;;4.40;99.90;;;;;;5096851;27;20049;-60
2021/03/16 06:04:51;;;;;;;18.00;4.13;;;4.40;99.90;;;;;;5114457;27;20050;-62
2021/03/16 06:07:17;;;;;;;24.88;4.45;;;4.40;99.90;;;;;;5123148;27;20400;-63
2021/03/16 06:09:44;;;;;;;20.67;4.75;;;4.40;99.90;;;;;;5111471;27;20023;-62
2021/03/16 06:12:10;;;;;;;33.72;6.05;;;4.50;99.90;;;;;;5126930;27;20415;-61
2021/03/16 06:14:37;;;;;;;29.20;4.57;;;4.50;99.90;;;;;;5112941;27;20035;-62
2021/03/16 06:17:04;;;;;;;31.20;4.53;;;4.50;99.90;;;;;;5124491;27;20037;-61
2021/03/16 06:19:34;;;;;;;25.38;4.72;;;4.60;99.90;;;;;;5124099;27;20099;-61
2021/03/16 06:22:05;;;;;;;30.45;5.15;;;4.60;99.90;;;;;;5131756;27;20019;-61
2021/03/16 06:24:31;;;;;;;22.95;4.22;;;4.60;99.90;;;;;;5129483;27;20582;-62
2021/03/16 06:26:58;;;;;;;24.45;4.40;;;4.60;99.90;;;;;;5127605;27;20031;-61
2021/03/16 06:29:24;;;;;;;16.75;4.32;;;4.70;99.90;;;;;;5121339;27;20443;-62
2021/03/16 06:31:50;;;;;;;22.88;4.57;;;4.60;99.90;;;;;;5122690;27;20033;-62
2021/03/16 06:34:24;;;;;;;23.73;4.57;;;4.60;99.90;;;;;;5122284;27;20027;-60
2021/03/16 06:36:58;;;;;;;20.83;3.95;;;4.60;99.90;;;;;;5120825;27;20027;-61
2021/03/16 06:39:24;;;;;;;31.20;5.75;;;4.60;99.90;;;;;;5122229;27;20436;-61
2021/03/16 06:41:52;;;;;;;24.77;3.70;;;4.70;99.90;;;;;;5124186;27;20024;-61
2021/03/16 06:44:19;;;;;;;19.85;3.75;;;4.70;99.90;;;;;;5144606;27;20015;-62
2021/03/16 06:46:56;;;;;;;27.27;6.20;;;4.70;99.90;;;;;;5123282;27;20373;-61
2021/03/16 06:49:24;;;;;;;20.95;3.80;;;4.80;99.90;;;;;;5111456;27;20031;-61
2021/03/16 06:51:51;;;;;;;31.77;6.18;;;4.80;99.90;;;;;;5127738;27;20033;-62
2021/03/16 06:54:18;;;;;;;22.85;5.07;;;4.80;99.90;;;;;;5125628;27;20019;-62
2021/03/16 06:56:55;;;;;;;23.55;4.43;;;4.80;99.90;;;;;;5099505;27;20055;-60
2021/03/16 06:59:28;;;;;;;19.58;3.97;;;4.80;99.90;;;;;;5118277;27;20508;-61
2021/03/16 07:01:54;;;;;;;22.40;4.70;;;4.80;99.90;;;;;;5102524;27;20088;-62
2021/03/16 07:04:24;;;;;;;22.67;3.85;;;4.80;99.90;;;;;;5125502;27;20034;-61
2021/03/16 07:06:50;;;;;;;24.00;4.32;;;4.80;99.90;;;;;;5126931;27;20007;-62
2021/03/16 07:09:18;;;;;;;27.10;4.10;;;4.80;99.90;;;;;;5108356;27;20073;-62
2021/03/16 07:11:48;;;;;;;24.23;4.00;;;4.80;99.90;;;;;;5129118;27;20012;-61
2021/03/16 07:14:16;;;;;;;22.17;3.92;;;4.80;99.90;;;;;;5112666;27;20541;-62
2021/03/16 07:16:42;;;;;;;19.70;4.05;;;4.90;99.90;;;;;;5127642;27;20170;-61
2021/03/16 07:19:09;;;;;;;15.80;4.35;;;4.90;99.90;;;;;;5112939;27;20990;-62
2021/03/16 07:21:47;;;;;;;15.40;4.15;;;4.80;99.90;;;;;;5124631;27;20413;-61
2021/03/16 07:24:15;;;;;;;18.42;4.03;;;4.90;99.90;;;;;;5119503;27;20515;-62
2021/03/16 07:26:41;;;;;;;16.90;4.20;;;4.90;99.90;;;;;;5130437;27;20084;-61
2021/03/16 07:29:07;;;;;;;18.92;4.03;;;5.00;99.90;;;;;;5121823;27;20039;-62
2021/03/16 07:31:38;;;;;;;15.50;4.85;;;5.10;99.90;;;;;;5122328;27;20031;-61
2021/03/16 07:34:05;;;;;;;20.80;4.00;;;5.30;99.90;;;;;;5122678;27;20043;-63
2021/03/16 07:36:36;;;;;;;17.02;3.78;;;5.50;99.90;;;;;;5123155;27;20024;-62
2021/03/16 07:39:05;;;;;;;26.02;4.22;;;5.60;99.90;;;;;;5115905;27;20023;-61
2021/03/16 07:41:32;;;;;;;25.08;5.35;;;5.70;99.90;;;;;;5115326;27;20018;-63
2021/03/16 07:44:03;;;;;;;25.85;3.85;;;5.80;99.90;;;;;;5122553;27;20052;-62
2021/03/16 07:46:39;;;;;;;26.23;3.95;;;5.90;99.90;;;;;;5123670;27;20047;-63
2021/03/16 07:49:05;;;;;;;11.23;3.20;;;6.00;99.90;;;;;;5127954;27;20391;-63
2021/03/16 07:51:33;;;;;;;17.48;4.35;;;5.90;99.90;;;;;;5128942;27;20023;-63
2021/03/16 07:54:06;;;;;;;18.80;5.20;;;6.00;99.90;;;;;;5119928;27;20027;-61
2021/03/16 07:56:34;;;;;;;22.90;6.25;;;6.00;99.90;;;;;;5094776;27;20043;-61
2021/03/16 07:59:01;;;;;;;17.98;6.35;;;5.90;99.90;;;;;;5124593;27;20023;-61
2021/03/16 08:01:26;;;;;;;28.73;6.95;;;5.90;99.90;;;;;;5105208;27;20043;-60
2021/03/16 08:04:06;;;;;;;15.38;5.13;;;6.10;99.90;;;;;;5127154;27;20477;-61
2021/03/16 08:06:34;;;;;;;14.55;5.45;;;6.20;99.90;;;;;;5111179;27;20374;-62
2021/03/16 08:09:00;;;;;;;18.38;4.88;;;6.30;99.90;;;;;;5118598;27;20507;-62
2021/03/16 08:11:40;;;;;;;23.85;6.68;;;6.40;99.90;;;;;;5125392;27;20463;-63
2021/03/16 08:14:07;;;;;;;18.92;4.88;;;6.40;99.90;;;;;;5111551;28;20047;-62
2021/03/16 08:16:34;;;;;;;19.10;4.70;;;6.30;99.90;;;;;;5127231;28;20171;-61
2021/03/16 08:19:14;;;;;;;17.65;4.70;;;6.20;99.90;;;;;;5122502;28;20475;-62
2021/03/16 08:21:42;;;;;;;19.95;4.03;;;6.30;99.90;;;;;;5127989;28;20019;-61
2021/03/16 08:24:12;;;;;;;18.10;5.25;;;6.20;99.90;;;;;;5122697;28;20027;-62
2021/03/16 08:26:49;;;;;;;21.35;4.80;;;6.10;99.90;;;;;;5122194;28;20524;-62
2021/03/16 08:29:15;;;;;;;20.73;4.43;;;6.10;99.90;;;;;;5120889;27;20035;-62
2021/03/16 08:31:41;;;;;;;23.52;4.22;;;6.00;99.90;;;;;;5122762;28;20392;-62
2021/03/16 08:34:09;;;;;;;10.07;4.15;;;6.00;99.90;;;;;;5126279;28;20057;-62
2021/03/16 08:36:41;;;;;;;19.90;4.40;;;6.10;99.90;;;;;;5122547;28;20035;-62
2021/03/16 08:39:08;;;;;;;25.63;4.65;;;6.30;99.90;;;;;;5124556;28;20019;-62
2021/03/16 08:41:34;;;;;;;19.00;5.15;;;6.30;99.90;;;;;;5109755;28;20685;-62
2021/03/16 08:44:00;;;;;;;16.02;4.05;;;6.40;99.90;;;;;;5125254;28;20020;-62
2021/03/16 08:46:38;;;;;;;17.30;3.15;;;6.50;99.90;;;;;;5122284;28;20474;-63
2021/03/16 08:49:03;;;;;;;14.73;3.10;;;6.50;99.90;;;;;;5124009;28;20027;-63
2021/03/16 08:51:30;;;;;;;16.20;4.45;;;6.60;99.90;;;;;;5127730;28;20038;-63
2021/03/16 08:53:56;;;;;;;13.77;3.72;;;6.50;99.90;;;;;;5120912;28;20167;-62
2021/03/16 08:56:23;;;;;;;18.42;3.10;;;6.60;99.90;;;;;;5108625;27;20114;-62
2021/03/16 08:58:53;;;;;;;20.25;4.28;;;6.70;99.90;;;;;;5106968;28;20054;-61
2021/03/16 09:01:26;;;;;;;17.02;3.97;;;6.80;99.90;;;;;;5124871;27;20023;-62
2021/03/16 09:03:52;;;;;;;18.05;4.47;;;7.00;99.90;;;;;;5114522;27;20028;-61
2021/03/16 09:06:19;;;;;;;12.40;3.10;;;7.00;99.90;;;;;;5127508;27;20029;-62
2021/03/16 09:08:52;;;;;;;13.98;3.00;;;6.90;99.90;;;;;;5123799;27;20028;-62
2021/03/16 09:11:33;;;;;;;14.40;3.30;;;7.20;99.90;;;;;;5128558;27;20030;-61
2021/03/16 09:14:15;;;;;;;14.27;2.97;;;7.70;99.90;;;;;;5122669;27;20105;-62
2021/03/16 09:16:48;;;;;;;11.32;2.70;;;8.70;99.90;;;;;;5131770;27;20038;-62
2021/03/16 09:19:15;;;;;;;16.98;2.90;;;9.30;99.90;;;;;;5127192;27;20043;-62
2021/03/16 09:21:55;;;;;;;11.68;2.50;;;9.40;99.90;;;;;;5127844;27;20557;-62
2021/03/16 09:24:27;;;;;;;11.98;3.08;;;9.40;99.90;;;;;;5137021;27;20531;-61
2021/03/16 09:26:59;;;;;;;13.15;2.50;;;8.90;99.90;;;;;;5132867;27;20030;-62
2021/03/16 09:29:29;;;;;;;15.60;2.63;;;8.30;99.90;;;;;;5124716;27;20031;-62
2021/03/16 09:32:04;;;;;;;17.27;2.90;;;7.90;99.90;;;;;;5126049;27;20034;-62
2021/03/16 09:34:31;;;;;;;11.55;2.75;;;7.90;99.90;;;;;;5124621;27;20627;-61
2021/03/16 09:37:05;;;;;;;6.70;2.00;;;8.00;99.90;;;;;;5119420;27;20563;-61
2021/03/16 09:39:31;;;;;;;14.45;2.97;;;7.80;99.90;;;;;;5122836;27;20080;-61
2021/03/16 09:41:59;;;;;;;13.02;2.63;;;7.70;99.90;;;;;;5119370;27;20046;-62
2021/03/16 09:44:36;;;;;;;13.30;2.50;;;7.70;99.90;;;;;;5125313;27;20027;-62
2021/03/16 09:47:03;;;;;;;7.40;2.30;;;7.00;99.90;;;;;;5118807;27;20849;-61
2021/03/16 09:49:33;;;;;;;6.65;2.28;;;6.50;99.90;;;;;;5126570;27;20023;-62
2021/03/16 09:52:17;;;;;;;13.27;3.08;;;5.80;99.90;;;;;;5129750;27;20065;-62
2021/03/16 09:54:44;;;;;;;17.75;6.05;;;5.50;99.90;;;;;;5121532;27;20045;-61
2021/03/16 09:57:12;;;;;;;7.82;2.80;;;5.20;99.90;;;;;;5097417;27;20089;-59
2021/03/16 09:59:40;;;;;;;11.18;3.25;;;5.00;99.90;;;;;;5120733;27;20054;-61
2021/03/16 10:02:07;;;;;;;8.23;3.35;;;5.00;99.90;;;;;;5123779;27;20560;-58
2021/03/16 10:04:49;;;;;;;11.68;3.55;;;4.90;99.90;;;;;;5107521;27;20055;-59
2021/03/16 10:07:28;;;;;;;12.43;4.30;;;4.90;99.90;;;;;;5124579;27;20378;-61
2021/03/16 10:10:05;;;;;;;17.17;5.38;;;5.00;99.90;;;;;;5121898;27;20027;-61
2021/03/16 10:12:30;;;;;;;14.60;4.95;;;5.20;99.90;;;;;;5122393;27;20059;-61
2021/03/16 10:14:56;;;;;;;14.10;5.35;;;5.40;99.90;;;;;;5123560;27;20069;-61
2021/03/16 10:17:25;;;;;;;15.50;4.63;;;5.70;99.90;;;;;;5113574;27;20039;-62
2021/03/16 10:20:04;;;;;;;15.35;5.47;;;6.00;99.90;;;;;;5116676;27;20019;-62
2021/03/16 10:22:35;;;;;;;12.95;4.80;;;6.40;99.90;;;;;;5115802;27;20051;-62
2021/03/16 10:25:09;;;;;;;15.15;4.93;;;6.80;99.90;;;;;;5119194;27;20076;-59
2021/03/16 10:27:35;;;;;;;23.77;5.65;;;6.90;99.90;;;;;;5121936;27;20122;-61
2021/03/16 10:30:04;;;;;;;20.35;5.55;;;7.30;99.90;;;;;;5126176;27;20035;-58
2021/03/16 10:32:30;;;;;;;16.90;5.15;;;7.50;99.90;;;;;;5129416;27;20029;-59
2021/03/16 10:34:55;;;;;;;21.30;5.07;;;7.70;99.90;;;;;;5130932;27;20097;-58
2021/03/16 10:37:23;;;;;;;15.52;4.88;;;8.00;99.90;;;;;;5129830;27;20035;-57
2021/03/16 10:39:49;;;;;;;24.67;5.95;;;8.40;99.90;;;;;;5129541;27;20495;-58
2021/03/16 10:42:15;;;;;;;16.48;5.15;;;8.50;99.90;;;;;;5115998;27;20023;-57
2021/03/16 10:44:41;;;;;;;16.40;4.75;;;8.60;99.90;;;;;;5125703;27;20027;-58
2021/03/16 10:47:07;;;;;;;11.60;3.45;;;8.90;99.90;;;;;;5113373;27;20055;-60
2021/03/16 10:49:34;;;;;;;12.93;3.33;;;9.30;99.90;;;;;;5113870;27;20031;-62
2021/03/16 10:52:01;;;;;;;13.70;3.83;;;9.30;99.90;;;;;;5129088;27;20027;-61
2021/03/16 10:54:27;;;;;;;19.17;4.03;;;9.50;99.90;;;;;;5114825;27;20079;-59
2021/03/16 10:56:54;;;;;;;14.10;3.30;;;9.60;99.90;;;;;;5100716;27;20109;-59
2021/03/16 10:59:21;;;;;;;18.27;5.88;;;9.60;99.90;;;;;;5121979;27;20144;-59
2021/03/16 11:01:47;;;;;;;18.48;3.95;;;10.00;99.90;;;;;;5131181;27;20050;-59
2021/03/16 11:04:14;;;;;;;12.60;3.70;;;10.30;99.90;;;;;;5105888;27;20051;-60
2021/03/16 11:06:40;;;;;;;13.55;4.45;;;10.00;99.90;;;;;;5127876;27;20019;-60
2021/03/16 11:09:05;;;;;;;15.63;3.58;;;9.60;99.90;;;;;;5122286;27;20060;-60
2021/03/16 11:11:31;;;;;;;14.27;3.95;;;9.30;99.90;;;;;;5129449;27;20072;-58
2021/03/16 11:13:56;;;;;;;11.95;2.90;;;8.90;99.90;;;;;;5121977;27;20442;-59
2021/03/16 11:16:22;;;;;;;16.30;3.40;;;8.50;99.90;;;;;;5122462;27;20466;-61
2021/03/16 11:18:47;;;;;;;8.32;3.08;;;8.40;99.90;;;;;;5113790;27;20093;-62
2021/03/16 11:21:13;;;;;;;14.68;3.33;;;8.40;99.90;;;;;;5125561;27;20057;-59
2021/03/16 11:23:38;;;;;;;13.25;3.60;;;8.40;99.90;;;;;;5125357;27;20694;-59
2021/03/16 11:26:04;;;;;;;8.82;2.85;;;8.50;99.90;;;;;;5119773;27;20035;-59
2021/03/16 11:28:30;;;;;;;14.40;3.20;;;9.00;99.90;;;;;;5128086;27;20083;-62
2021/03/16 11:30:55;;;;;;;14.60;3.13;;;9.40;99.90;;;;;;5124377;27;20031;-61
2021/03/16 11:33:22;;;;;;;14.68;3.70;;;9.50;99.90;;;;;;5116282;27;20030;-62
2021/03/16 11:35:48;;;;;;;13.90;3.75;;;9.50;99.90;;;;;;5119450;27;20035;-61
2021/03/16 11:38:14;;;;;;;11.93;4.68;;;9.30;99.90;;;;;;5121073;27;20108;-59
2021/03/16 11:40:39;;;;;;;14.82;4.45;;;9.10;99.90;;;;;;5115370;27;20645;-60
2021/03/16 11:43:05;;;;;;;10.43;3.65;;;9.00;99.90;;;;;;5124438;27;20528;-61
2021/03/16 11:45:30;;;;;;;15.38;4.32;;;8.90;99.90;;;;;;5122246;27;20102;-59
2021/03/16 11:47:56;;;;;;;10.48;3.40;;;8.80;99.90;;;;;;5122019;27;20454;-63
2021/03/16 11:50:21;;;;;;;10.55;2.90;;;8.50;99.90;;;;;;5120708;27;20111;-59
2021/03/16 11:52:47;;;;;;;17.23;3.90;;;8.40;99.90;;;;;;5119576;27;20113;-62
2021/03/16 11:55:13;;;;;;;10.60;3.15;;;8.00;99.90;;;;;;5122718;27;20077;-61
2021/03/16 11:57:39;;;;;;;13.02;3.13;;;7.90;99.90;;;;;;5099875;27;20039;-59
2021/03/16 12:00:06;;;;;;;11.68;3.30;;;7.70;99.90;;;;;;5123000;27;20091;-60
2021/03/16 12:02:33;;;;;;;8.27;2.22;;;7.40;99.90;;;;;;5116546;27;20122;-61
2021/03/16 12:04:59;;;;;;;9.60;2.28;;;7.40;99.90;;;;;;5130553;27;20023;-61
2021/03/16 12:07:24;;;;;;;11.55;3.35;;;7.40;99.90;;;;;;5110210;27;20066;-58
2021/03/16 12:09:50;;;;;;;8.70;2.03;;;7.50;99.90;;;;;;5121183;28;20027;-62
2021/03/16 12:12:16;;;;;;;5.13;1.92;;;7.90;99.90;;;;;;5120580;27;20043;-58
2021/03/16 12:14:41;;;;;;;10.35;1.77;;;8.40;99.90;;;;;;5116742;27;20475;-59
2021/03/16 12:17:10;;;;;;;8.07;1.45;;;8.60;99.90;;;;;;5115819;28;20036;-59
2021/03/16 12:19:36;;;;;;;5.25;2.10;;;8.90;99.90;;;;;;5122213;28;20034;-60
2021/03/16 12:22:02;;;;;;;4.47;1.40;;;9.00;99.90;;;;;;5121709;28;20023;-59
2021/03/16 12:24:27;;;;;;;13.90;1.92;;;9.10;99.90;;;;;;5116000;28;20080;-60
2021/03/16 12:26:53;;;;;;;10.05;2.17;;;9.10;99.90;;;;;;5119807;28;20051;-62
2021/03/16 12:29:18;;;;;;;8.32;1.95;;;9.20;99.90;;;;;;5124047;27;20023;-59
2021/03/16 12:31:44;;;;;;;10.10;2.00;;;9.30;99.90;;;;;;5115586;28;20042;-61
2021/03/16 12:34:10;;;;;;;6.38;1.60;;;9.30;99.90;;;;;;5124376;28;20031;-60
2021/03/16 12:36:36;;;;;;;9.60;1.90;;;9.30;99.90;;;;;;5119305;27;20043;-57
2021/03/16 12:39:02;;;;;;;8.10;2.20;;;9.20;99.90;;;;;;5131415;27;20023;-58
2021/03/16 12:41:28;;;;;;;9.80;2.28;;;9.50;99.90;;;;;;5132018;27;20189;-61
2021/03/16 12:43:53;;;;;;;6.18;1.92;;;9.70;99.90;;;;;;5130098;27;20488;-59
2021/03/16 12:46:19;;;;;;;7.88;2.00;;;10.10;99.90;;;;;;5130337;27;20492;-60
2021/03/16 12:48:44;;;;;;;8.63;1.90;;;10.10;99.90;;;;;;5125942;27;20067;-58
2021/03/16 12:51:10;;;;;;;10.07;2.47;;;10.10;99.90;;;;;;5132780;27;20026;-61
2021/03/16 12:53:36;;;;;;;7.78;2.25;;;10.10;99.90;;;;;;5129353;27;20019;-60
2021/03/16 12:56:01;;;;;;;8.73;2.45;;;9.60;99.90;;;;;;5128825;27;20551;-58